createdAt,value
2017-07-30T00:01:27.964Z,94.50
2017-07-30T00:03:56.277Z,95.00
2017-07-30T00:06:23.792Z,94.90
2017-07-30T00:08:52.107Z,95.50
2017-07-30T00:11:19.624Z,95.20
2017-07-30T00:13:47.948Z,95.10
2017-07-30T00:16:15.464Z,95.10
2017-07-30T00:18:43.740Z,95.00
2017-07-30T00:21:12.063Z,95.20
2017-07-30T00:23:39.573Z,95.20
2017-07-30T00:26:07.085Z,95.50
2017-07-30T00:28:34.639Z,95.30
2017-07-30T00:31:02.147Z,95.50
2017-07-30T00:33:29.660Z,95.20
2017-07-30T00:35:57.200Z,95.10
2017-07-30T00:38:24.712Z,95.10
2017-07-30T00:40:52.259Z,95.00
2017-07-30T00:43:19.800Z,95.10
2017-07-30T00:45:47.316Z,95.00
2017-07-30T00:48:15.615Z,95.00
2017-07-30T00:50:43.153Z,95.00
2017-07-30T00:53:10.660Z,95.00
2017-07-30T00:55:38.200Z,95.30
2017-07-30T00:58:05.708Z,94.90
2017-07-30T01:00:33.269Z,94.60
2017-07-30T01:03:00.784Z,94.40
2017-07-30T01:05:28.296Z,94.70
2017-07-30T01:07:55.840Z,94.40
2017-07-30T01:10:23.352Z,94.00
2017-07-30T01:12:50.920Z,94.00
2017-07-30T01:15:18.434Z,94.10
2017-07-30T01:17:45.950Z,94.20
2017-07-30T01:20:13.511Z,94.50
2017-07-30T01:22:41.027Z,94.50
2017-07-30T01:25:08.564Z,94.40
2017-07-30T01:27:36.108Z,94.50
2017-07-30T01:30:03.618Z,94.30
2017-07-30T01:32:31.143Z,94.20
2017-07-30T01:34:58.668Z,94.60
2017-07-30T01:37:26.207Z,94.50
2017-07-30T01:39:54.484Z,94.10
2017-07-30T01:42:22.032Z,94.00
2017-07-30T01:44:50.347Z,93.80
2017-07-30T01:47:17.859Z,93.70
2017-07-30T01:49:45.404Z,93.50
2017-07-30T01:52:12.915Z,93.50
2017-07-30T01:54:40.419Z,93.50
2017-07-30T01:57:07.945Z,93.30
2017-07-30T01:59:35.455Z,93.30
2017-07-30T02:02:03.016Z,93.50
2017-07-30T02:04:30.519Z,93.50
2017-07-30T02:06:58.027Z,93.40
2017-07-30T02:09:25.575Z,93.40
2017-07-30T02:11:53.084Z,93.30
2017-07-30T02:14:20.587Z,93.10
2017-07-30T02:16:48.123Z,93.10
2017-07-30T02:19:15.668Z,93.40
2017-07-30T02:21:43.179Z,93.30
2017-07-30T02:24:10.693Z,93.30
2017-07-30T02:26:38.241Z,93.30
2017-07-30T02:29:05.748Z,93.00
2017-07-30T02:31:33.289Z,93.10
2017-07-30T02:34:00.803Z,93.00
2017-07-30T02:36:29.108Z,92.70
2017-07-30T02:38:56.675Z,92.70
2017-07-30T02:41:24.188Z,92.70
2017-07-30T02:43:51.695Z,92.90
2017-07-30T02:46:19.265Z,93.10
2017-07-30T02:48:46.787Z,93.10
2017-07-30T02:51:15.065Z,93.20
2017-07-30T02:53:43.384Z,93.00
2017-07-30T02:56:10.893Z,92.90
2017-07-30T02:58:38.403Z,93.10
2017-07-30T03:01:05.948Z,93.30
2017-07-30T03:03:33.450Z,93.20
2017-07-30T03:06:01.001Z,93.20
2017-07-30T03:08:28.523Z,93.40
2017-07-30T03:10:56.043Z,92.90
2017-07-30T03:13:23.587Z,93.00
2017-07-30T03:15:51.090Z,92.70
2017-07-30T03:18:18.626Z,92.60
2017-07-30T03:20:46.152Z,92.50
2017-07-30T03:23:14.511Z,92.60
2017-07-30T03:25:42.055Z,93.20
2017-07-30T03:28:09.571Z,92.90
2017-07-30T03:30:37.112Z,92.90
2017-07-30T03:33:04.621Z,93.10
2017-07-30T03:35:32.893Z,92.70
2017-07-30T03:38:01.208Z,92.30
2017-07-30T03:40:28.715Z,92.30
2017-07-30T03:42:56.221Z,92.60
2017-07-30T03:45:23.765Z,92.40
2017-07-30T03:47:51.278Z,92.40
2017-07-30T03:50:18.858Z,92.90
2017-07-30T03:52:46.371Z,93.60
2017-07-30T03:55:13.876Z,93.30
2017-07-30T03:57:41.424Z,93.40
2017-07-30T04:00:08.936Z,93.50
2017-07-30T04:02:36.494Z,93.30
2017-07-30T04:05:04.011Z,92.90
2017-07-30T04:07:31.518Z,92.90
2017-07-30T04:09:59.104Z,92.40
2017-07-30T04:12:26.611Z,93.30
2017-07-30T04:14:54.887Z,93.60
2017-07-30T04:17:22.437Z,93.50
2017-07-30T04:19:49.953Z,93.30
2017-07-30T04:22:17.459Z,93.40
2017-07-30T04:24:45.004Z,94.20
2017-07-30T04:27:12.507Z,92.90
2017-07-30T04:29:40.031Z,92.90
2017-07-30T04:32:07.579Z,92.50
2017-07-30T04:34:35.086Z,92.10
2017-07-30T04:37:02.602Z,91.80
2017-07-30T04:39:30.187Z,91.60
2017-07-30T04:41:58.474Z,91.90
2017-07-30T04:44:26.739Z,91.90
2017-07-30T04:46:55.040Z,91.90
2017-07-30T04:49:22.556Z,91.80
2017-07-30T04:51:50.108Z,91.60
2017-07-30T04:54:17.616Z,91.60
2017-07-30T04:56:45.127Z,91.10
2017-07-30T04:59:12.673Z,90.80
2017-07-30T05:01:40.183Z,90.50
2017-07-30T05:04:08.480Z,90.30
2017-07-30T05:06:36.029Z,90.30
2017-07-30T05:09:03.547Z,90.30
2017-07-30T05:11:31.051Z,90.30
2017-07-30T05:13:58.609Z,90.30
2017-07-30T05:16:26.111Z,90.60
2017-07-30T05:18:53.610Z,90.50
2017-07-30T05:21:21.155Z,90.20
2017-07-30T05:23:49.452Z,89.20
2017-07-30T05:26:16.979Z,89.20
2017-07-30T05:28:44.535Z,89.10
2017-07-30T05:31:12.053Z,88.50
2017-07-30T05:33:39.555Z,88.40
2017-07-30T05:36:07.098Z,88.10
2017-07-30T05:38:34.606Z,88.40
2017-07-30T05:41:02.899Z,88.90
2017-07-30T05:43:30.432Z,88.30
2017-07-30T05:45:57.942Z,88.50
2017-07-30T05:48:25.468Z,89.50
2017-07-30T05:50:53.748Z,88.80
2017-07-30T05:53:22.087Z,87.90
2017-07-30T05:55:49.592Z,87.70
2017-07-30T05:58:17.135Z,87.50
2017-07-30T06:00:44.679Z,88.00
2017-07-30T06:03:12.184Z,88.10
2017-07-30T06:05:39.738Z,88.00
2017-07-30T06:08:07.248Z,87.90
2017-07-30T06:10:34.761Z,88.20
2017-07-30T06:13:02.292Z,88.60
2017-07-30T06:15:29.800Z,89.20
2017-07-30T06:17:57.344Z,89.10
2017-07-30T06:20:24.889Z,89.70
2017-07-30T06:22:52.419Z,90.00
2017-07-30T06:25:19.923Z,90.00
2017-07-30T06:27:47.467Z,89.40
2017-07-30T06:30:15.017Z,89.60
2017-07-30T06:32:43.293Z,88.10
2017-07-30T06:35:11.607Z,89.60
2017-07-30T06:37:39.144Z,88.60
2017-07-30T06:40:06.660Z,88.20
2017-07-30T06:42:34.208Z,88.80
2017-07-30T06:45:01.720Z,88.80
2017-07-30T06:47:30.038Z,88.20
2017-07-30T06:49:57.563Z,88.20
2017-07-30T06:52:26.504Z,87.10
2017-07-30T06:54:54.093Z,87.10
2017-07-30T06:57:21.607Z,87.40
2017-07-30T06:59:49.166Z,86.50
2017-07-30T07:02:16.728Z,86.70
2017-07-30T07:04:44.245Z,86.20
2017-07-30T07:07:12.566Z,85.80
2017-07-30T07:09:40.086Z,85.80
2017-07-30T07:12:07.638Z,85.00
2017-07-30T07:14:35.919Z,86.10
2017-07-30T07:17:04.249Z,84.10
2017-07-30T07:19:31.768Z,84.00
2017-07-30T07:22:00.046Z,83.70
2017-07-30T07:24:28.404Z,84.00
2017-07-30T07:26:55.918Z,84.00
2017-07-30T07:29:23.432Z,83.70
2017-07-30T07:31:51.176Z,83.30
2017-07-30T07:34:18.697Z,83.60
2017-07-30T07:36:46.356Z,82.40
2017-07-30T07:39:14.018Z,83.80
2017-07-30T07:41:41.527Z,82.10
2017-07-30T07:44:09.023Z,82.40
2017-07-30T07:46:36.569Z,82.60
2017-07-30T07:49:04.845Z,81.80
2017-07-30T07:51:33.151Z,82.40
2017-07-30T07:54:00.711Z,82.30
2017-07-30T07:56:28.223Z,82.20
2017-07-30T07:58:55.726Z,80.80
2017-07-30T08:01:23.252Z,81.40
2017-07-30T08:03:51.564Z,80.30
2017-07-30T08:06:19.076Z,80.50
2017-07-30T08:08:46.634Z,80.60
2017-07-30T08:11:14.158Z,79.80
2017-07-30T08:13:41.671Z,80.30
2017-07-30T08:16:09.223Z,79.50
2017-07-30T08:18:36.735Z,79.20
2017-07-30T08:21:04.239Z,79.70
2017-07-30T08:23:31.764Z,75.00
2017-07-30T08:25:59.301Z,76.40
2017-07-30T08:28:26.863Z,73.30
2017-07-30T08:30:54.373Z,73.30
2017-07-30T08:33:21.894Z,70.30
2017-07-30T08:35:49.430Z,71.40
2017-07-30T08:38:16.944Z,71.80
2017-07-30T08:40:44.488Z,71.10
2017-07-30T08:43:12.048Z,73.20
2017-07-30T08:45:39.555Z,72.00
2017-07-30T08:48:07.836Z,72.10
2017-07-30T08:50:36.137Z,73.80
2017-07-30T08:53:03.669Z,73.70
2017-07-30T08:55:32.008Z,70.30
2017-07-30T08:57:59.520Z,70.20
2017-07-30T09:00:27.036Z,73.70
2017-07-30T09:02:54.581Z,69.20
2017-07-30T09:05:22.095Z,67.80
2017-07-30T09:07:50.427Z,69.20
2017-07-30T09:10:17.937Z,69.20
2017-07-30T09:12:46.255Z,68.60
2017-07-30T09:15:13.776Z,68.40
2017-07-30T09:17:41.296Z,70.60
2017-07-30T09:20:08.842Z,71.20
2017-07-30T09:22:36.351Z,70.00
2017-07-30T09:25:04.623Z,65.70
2017-07-30T09:27:32.952Z,66.80
2017-07-30T09:30:00.455Z,66.70
2017-07-30T09:32:28.730Z,64.80
2017-07-30T09:34:57.057Z,62.20
2017-07-30T09:37:24.774Z,62.10
2017-07-30T09:39:52.280Z,64.30
2017-07-30T09:42:19.821Z,66.00
2017-07-30T09:44:47.324Z,66.00
2017-07-30T09:47:14.882Z,69.20
2017-07-30T09:49:42.391Z,67.00
2017-07-30T09:52:09.891Z,66.70
2017-07-30T09:54:37.435Z,66.80
2017-07-30T09:57:04.940Z,69.90
2017-07-30T09:59:32.447Z,65.60
2017-07-30T10:01:59.987Z,67.10
2017-07-30T10:04:27.495Z,66.30
2017-07-30T10:06:55.044Z,65.50
2017-07-30T10:09:22.579Z,67.80
2017-07-30T10:11:50.087Z,64.50
2017-07-30T10:14:17.803Z,63.90
2017-07-30T10:16:45.311Z,64.60
2017-07-30T10:19:12.819Z,59.70
2017-07-30T10:21:40.358Z,61.00
2017-07-30T10:24:08.639Z,60.70
2017-07-30T10:26:36.155Z,60.60
2017-07-30T10:29:03.659Z,63.70
2017-07-30T10:31:31.961Z,57.70
2017-07-30T10:33:59.487Z,57.60
2017-07-30T10:36:27.800Z,58.60
2017-07-30T10:38:55.317Z,58.50
2017-07-30T10:41:22.860Z,56.60
2017-07-30T10:43:50.365Z,57.30
2017-07-30T10:46:17.910Z,58.80
2017-07-30T10:48:46.265Z,56.50
2017-07-30T10:51:13.767Z,56.40
2017-07-30T10:53:41.313Z,57.50
2017-07-30T10:56:09.596Z,53.20
2017-07-30T10:58:37.914Z,54.90
2017-07-30T11:01:05.431Z,55.00
2017-07-30T11:03:32.948Z,53.50
2017-07-30T11:06:00.519Z,55.00
2017-07-30T11:08:28.076Z,52.60
2017-07-30T11:10:55.606Z,54.20
2017-07-30T11:13:23.115Z,52.10
2017-07-30T11:15:50.651Z,53.70
2017-07-30T11:18:18.192Z,51.30
2017-07-30T11:20:45.696Z,50.00
2017-07-30T11:23:13.966Z,55.30
2017-07-30T11:25:41.503Z,54.80
2017-07-30T11:28:09.014Z,51.80
2017-07-30T11:30:36.550Z,53.10
2017-07-30T11:33:04.111Z,51.70
2017-07-30T11:35:32.407Z,49.10
2017-07-30T11:37:59.916Z,49.00
2017-07-30T11:40:27.459Z,48.20
2017-07-30T11:42:54.967Z,47.00
2017-07-30T11:45:22.480Z,45.20
2017-07-30T11:47:50.043Z,49.40
2017-07-30T11:50:17.556Z,48.80
2017-07-30T11:52:45.828Z,44.10
2017-07-30T11:55:14.157Z,45.30
2017-07-30T11:57:41.669Z,45.30
2017-07-30T12:00:09.172Z,44.40
2017-07-30T12:02:36.723Z,44.00
2017-07-30T12:05:04.237Z,46.20
2017-07-30T12:07:31.756Z,45.40
2017-07-30T12:09:59.309Z,43.60
2017-07-30T12:12:26.824Z,45.20
2017-07-30T12:14:55.099Z,44.80
2017-07-30T12:17:22.643Z,44.70
2017-07-30T12:19:50.153Z,43.80
2017-07-30T12:22:17.712Z,44.00
2017-07-30T12:24:45.257Z,43.90
2017-07-30T12:27:12.778Z,43.50
2017-07-30T12:29:40.347Z,46.60
2017-07-30T12:32:07.866Z,44.90
2017-07-30T12:34:35.377Z,43.20
2017-07-30T12:37:02.913Z,44.50
2017-07-30T12:39:30.421Z,44.20
2017-07-30T12:41:58.012Z,45.70
2017-07-30T12:44:25.551Z,46.90
2017-07-30T12:46:53.112Z,45.00
2017-07-30T12:49:20.619Z,44.90
2017-07-30T12:51:48.131Z,45.20
2017-07-30T12:54:15.676Z,49.10
2017-07-30T12:56:43.951Z,47.60
2017-07-30T12:59:12.288Z,49.00
2017-07-30T13:01:39.799Z,49.00
2017-07-30T13:04:07.317Z,46.90
2017-07-30T13:06:34.861Z,46.60
2017-07-30T13:09:02.423Z,43.90
2017-07-30T13:11:29.936Z,45.50
2017-07-30T13:13:57.464Z,46.70
2017-07-30T13:16:25.092Z,46.20
2017-07-30T13:18:52.603Z,46.50
2017-07-30T13:21:20.897Z,48.70
2017-07-30T13:23:48.515Z,48.70
2017-07-30T13:26:16.842Z,46.80
2017-07-30T13:28:44.353Z,47.20
2017-07-30T13:31:11.883Z,47.10
2017-07-30T13:33:39.403Z,48.40
2017-07-30T13:36:07.724Z,49.50
2017-07-30T13:38:35.239Z,49.50
2017-07-30T13:41:03.520Z,49.20
2017-07-30T13:43:32.667Z,52.40
2017-07-30T13:46:00.171Z,52.30
2017-07-30T13:48:28.452Z,50.00
2017-07-30T13:50:55.994Z,49.80
2017-07-30T13:53:23.499Z,50.90
2017-07-30T13:55:51.006Z,50.20
2017-07-30T13:58:18.555Z,50.40
2017-07-30T14:00:46.075Z,49.90
2017-07-30T14:03:13.595Z,49.00
2017-07-30T14:05:41.148Z,48.70
2017-07-30T14:08:08.656Z,50.80
2017-07-30T14:10:36.172Z,50.30
2017-07-30T14:13:03.711Z,50.90
2017-07-30T14:15:31.231Z,46.70
2017-07-30T14:17:58.791Z,48.40
2017-07-30T14:20:26.294Z,49.10
2017-07-30T14:22:53.811Z,50.60
2017-07-30T14:25:21.351Z,48.50
2017-07-30T14:27:48.855Z,47.10
2017-07-30T14:30:16.394Z,45.90
2017-07-30T14:32:43.908Z,47.20
2017-07-30T14:35:11.423Z,48.30
2017-07-30T14:37:38.952Z,47.00
2017-07-30T14:40:07.223Z,45.60
2017-07-30T14:42:35.512Z,47.50
2017-07-30T14:45:03.027Z,47.50
2017-07-30T14:47:30.572Z,45.60
2017-07-30T14:49:58.083Z,45.40
2017-07-30T14:52:26.359Z,45.00
2017-07-30T14:54:54.683Z,45.70
2017-07-30T14:57:22.192Z,45.60
2017-07-30T14:59:50.464Z,47.50
2017-07-30T15:02:17.990Z,47.40
2017-07-30T15:04:45.511Z,45.80
2017-07-30T15:07:13.051Z,46.30
2017-07-30T15:09:40.603Z,48.00
2017-07-30T15:12:08.872Z,45.10
2017-07-30T15:14:36.465Z,44.40
2017-07-30T15:17:04.031Z,46.10
2017-07-30T15:19:31.534Z,45.30
2017-07-30T15:21:59.036Z,47.80
2017-07-30T15:24:27.355Z,46.10
2017-07-30T15:26:55.255Z,46.10
2017-07-30T15:29:22.895Z,46.00
2017-07-30T15:31:50.419Z,48.20
2017-07-30T15:34:17.932Z,50.30
2017-07-30T15:36:45.467Z,49.50
2017-07-30T15:39:12.997Z,48.20
2017-07-30T15:41:40.682Z,48.10
2017-07-30T15:44:08.251Z,46.00
2017-07-30T15:46:35.769Z,46.60
2017-07-30T15:49:04.043Z,46.10
2017-07-30T15:51:31.593Z,46.00
2017-07-30T15:53:59.879Z,46.10
2017-07-30T15:56:28.155Z,47.50
2017-07-30T15:58:56.481Z,46.90
2017-07-30T16:01:23.984Z,46.80
2017-07-30T16:03:51.483Z,46.50
2017-07-30T16:06:19.043Z,47.30
2017-07-30T16:08:46.560Z,47.50
2017-07-30T16:11:14.839Z,48.30
2017-07-30T16:13:43.147Z,49.90
2017-07-30T16:16:11.507Z,49.30
2017-07-30T16:18:39.824Z,49.40
2017-07-30T16:21:08.217Z,49.30
2017-07-30T16:23:35.727Z,48.20
2017-07-30T16:26:03.279Z,46.70
2017-07-30T16:28:33.896Z,48.80
2017-07-30T16:31:02.213Z,59.60
2017-07-30T16:33:29.760Z,59.60
2017-07-30T16:35:57.322Z,62.80
2017-07-30T16:38:26.646Z,54.90
2017-07-30T16:40:54.219Z,55.40
2017-07-30T16:43:22.575Z,55.30
2017-07-30T16:45:50.107Z,56.30
2017-07-30T16:48:17.655Z,56.30
2017-07-30T16:50:45.188Z,57.20
2017-07-30T16:53:12.742Z,58.20
2017-07-30T16:55:40.277Z,58.90
2017-07-30T16:58:07.787Z,58.20
2017-07-30T17:00:35.347Z,57.90
2017-07-30T17:03:02.863Z,59.20
2017-07-30T17:05:30.377Z,59.10
2017-07-30T17:07:57.940Z,60.40
2017-07-30T17:10:25.450Z,60.40
2017-07-30T17:12:52.972Z,60.30
2017-07-30T17:15:21.282Z,61.40
2017-07-30T17:17:48.796Z,62.10
2017-07-30T17:20:17.131Z,65.00
2017-07-30T17:22:44.648Z,64.30
2017-07-30T17:25:12.931Z,72.60
2017-07-30T17:27:41.228Z,76.60
2017-07-30T17:30:08.765Z,76.50
2017-07-30T17:32:37.084Z,79.60
2017-07-30T17:35:04.624Z,79.50
2017-07-30T17:37:32.126Z,84.00
2017-07-30T17:40:00.584Z,86.70
2017-07-30T17:42:28.104Z,87.20
2017-07-30T17:44:56.415Z,88.40
2017-07-30T17:47:23.971Z,88.50
2017-07-30T17:49:51.507Z,91.30
2017-07-30T17:52:19.799Z,91.70
2017-07-30T17:54:47.303Z,92.00
2017-07-30T17:57:14.848Z,91.80
2017-07-30T17:59:42.364Z,92.00
2017-07-30T18:02:10.647Z,92.30
2017-07-30T18:04:38.209Z,92.30
2017-07-30T18:07:06.485Z,89.50
2017-07-30T18:09:34.759Z,89.10
2017-07-30T18:12:03.078Z,88.10
2017-07-30T18:14:30.587Z,87.90
2017-07-30T18:16:58.863Z,88.40
2017-07-30T18:19:27.183Z,90.30
2017-07-30T18:21:54.708Z,90.10
2017-07-30T18:24:22.202Z,91.30
2017-07-30T18:26:49.746Z,92.40
2017-07-30T18:29:17.263Z,93.00
2017-07-30T18:31:44.772Z,94.40
2017-07-30T18:34:12.316Z,93.30
2017-07-30T18:36:39.826Z,94.10
2017-07-30T18:39:07.374Z,94.90
2017-07-30T18:41:34.882Z,93.70
2017-07-30T18:44:02.389Z,94.50
2017-07-30T18:46:29.924Z,93.00
2017-07-30T18:48:57.455Z,92.70
2017-07-30T18:51:25.539Z,93.00
2017-07-30T18:53:53.913Z,93.10
2017-07-30T18:56:22.208Z,94.20
2017-07-30T18:58:49.748Z,94.20
2017-07-30T19:01:18.088Z,90.60
2017-07-30T19:03:45.618Z,90.60
2017-07-30T19:06:13.164Z,90.90
2017-07-30T19:08:40.668Z,91.20
2017-07-30T19:11:08.177Z,90.40
2017-07-30T19:13:36.499Z,90.60
2017-07-30T19:16:03.999Z,90.50
2017-07-30T19:18:32.286Z,91.90
2017-07-30T19:20:59.814Z,91.90
2017-07-30T19:23:27.326Z,92.00
2017-07-30T19:25:54.879Z,92.70
2017-07-30T19:28:22.392Z,92.80
2017-07-30T19:30:49.907Z,91.70
2017-07-30T19:33:17.447Z,91.00
2017-07-30T19:35:45.096Z,92.00
2017-07-30T19:38:12.607Z,91.80
2017-07-30T19:40:40.175Z,91.60
2017-07-30T19:43:07.683Z,91.50
2017-07-30T19:45:35.191Z,91.80
2017-07-30T19:48:02.742Z,92.00
2017-07-30T19:50:30.295Z,92.20
2017-07-30T19:52:57.795Z,92.10
2017-07-30T19:55:25.307Z,92.00
2017-07-30T19:57:52.874Z,92.10
2017-07-30T20:00:20.389Z,92.20
2017-07-30T20:02:47.901Z,92.30
2017-07-30T20:05:15.463Z,92.40
2017-07-30T20:07:42.974Z,92.40
2017-07-30T20:10:10.485Z,92.70
2017-07-30T20:12:38.035Z,93.00
2017-07-30T20:15:05.554Z,93.40
2017-07-30T20:17:33.856Z,92.70
2017-07-30T20:20:01.462Z,92.70
2017-07-30T20:22:28.983Z,92.50
2017-07-30T20:24:56.493Z,92.40
2017-07-30T20:27:24.092Z,92.20
2017-07-30T20:29:52.375Z,92.40
2017-07-30T20:32:19.892Z,92.40
2017-07-30T20:34:47.429Z,92.70
2017-07-30T20:37:14.978Z,92.80
2017-07-30T20:39:42.532Z,93.20
2017-07-30T20:42:10.045Z,92.70
2017-07-30T20:44:37.559Z,92.20
2017-07-30T20:47:05.083Z,91.90
2017-07-30T20:49:33.360Z,92.10
2017-07-30T20:52:00.910Z,92.10
2017-07-30T20:54:29.191Z,91.50
2017-07-30T20:56:57.471Z,91.40
2017-07-30T20:59:25.794Z,91.50
2017-07-30T21:01:53.295Z,91.40
2017-07-30T21:04:20.803Z,91.30
2017-07-30T21:06:48.338Z,91.40
2017-07-30T21:09:16.608Z,91.90
2017-07-30T21:11:44.939Z,91.60
2017-07-30T21:14:12.448Z,91.30
2017-07-30T21:16:40.725Z,91.90
2017-07-30T21:19:09.043Z,92.10
2017-07-30T21:21:36.556Z,92.10
2017-07-30T21:24:04.058Z,91.90
2017-07-30T21:26:31.618Z,91.40
2017-07-30T21:28:59.140Z,91.70
2017-07-30T21:31:26.646Z,91.20
2017-07-30T21:33:54.211Z,90.70
2017-07-30T21:36:21.752Z,90.80
2017-07-30T21:38:49.268Z,90.70
2017-07-30T21:41:16.787Z,91.00
2017-07-30T21:43:44.303Z,91.30
2017-07-30T21:46:12.596Z,90.80
2017-07-30T21:48:40.119Z,90.80
2017-07-30T21:51:07.674Z,91.00
2017-07-30T21:53:35.245Z,90.60
2017-07-30T21:56:02.762Z,91.00
2017-07-30T21:58:30.295Z,90.90
2017-07-30T22:00:57.847Z,91.60
2017-07-30T22:03:26.119Z,91.50
2017-07-30T22:05:54.391Z,91.70
2017-07-30T22:08:21.955Z,91.80
2017-07-30T22:10:50.227Z,92.40
2017-07-30T22:13:18.495Z,93.20
2017-07-30T22:15:46.103Z,92.90
2017-07-30T22:18:13.624Z,92.40
2017-07-30T22:20:41.138Z,92.80
2017-07-30T22:23:08.688Z,92.80
2017-07-30T22:25:36.233Z,93.10
2017-07-30T22:28:03.756Z,93.80
2017-07-30T22:30:32.040Z,93.40
2017-07-30T22:33:00.363Z,94.10
2017-07-30T22:35:27.892Z,93.90
2017-07-30T22:37:55.408Z,93.40
2017-07-30T22:40:22.964Z,92.80
2017-07-30T22:42:50.473Z,92.90
2017-07-30T22:45:18.016Z,92.30
2017-07-30T22:47:46.341Z,93.00
2017-07-30T22:50:13.860Z,93.00
2017-07-30T22:52:42.181Z,93.30
2017-07-30T22:55:09.698Z,93.30
2017-07-30T22:57:37.982Z,93.90
2017-07-30T23:00:06.307Z,93.40
2017-07-30T23:02:33.893Z,93.40
2017-07-30T23:05:01.409Z,93.60
2017-07-30T23:07:28.967Z,93.10
2017-07-30T23:09:56.480Z,93.00
2017-07-30T23:12:23.997Z,93.40
2017-07-30T23:14:51.539Z,93.20
2017-07-30T23:17:19.051Z,94.10
2017-07-30T23:19:46.580Z,94.10
2017-07-30T23:22:14.160Z,93.60
2017-07-30T23:24:41.671Z,94.10
2017-07-30T23:27:09.176Z,93.60
2017-07-30T23:29:36.785Z,93.40
2017-07-30T23:32:05.062Z,93.50
2017-07-30T23:34:32.584Z,93.50
2017-07-30T23:37:00.136Z,93.00
2017-07-30T23:39:27.643Z,92.90
2017-07-30T23:41:55.159Z,92.90
2017-07-30T23:44:22.703Z,93.10
2017-07-30T23:46:50.215Z,92.80
2017-07-30T23:49:18.827Z,92.80
2017-07-30T23:51:46.335Z,92.80
2017-07-30T23:54:13.845Z,93.30
2017-07-30T23:56:41.402Z,93.40
2017-07-30T23:59:08.910Z,93.40
